Time;durP1;ratioP1;P1;durP2;ratioP2;P2;SDS_P1;SDS_P2;PMS_P1;PMS_P2;Temp;Humidity;BMP_temperature;BMP_pressure;BME280_temperature;BME280_humidity;BME280_pressure;Samples;Min_cycle;Max_cycle;Signal;HPM_P1;HPM_P2
2022/12/20 00:03:28;;;;;;;;;;;;;;;9.17;85.44;101454.16;20644375;28;19929;-68
2022/12/20 00:13:49;;;;;;;;;;;;;;;9.24;85.35;101445.44;20644902;28;20309;-69
2022/12/20 00:24:10;;;;;;;;;;;;;;;9.38;85.69;101438.34;20629195;28;20012;-68
2022/12/20 00:34:32;;;;;;;;;;;;;;;9.50;85.76;101438.16;20641914;28;20011;-68
2022/12/20 00:44:53;;;;;;;;;;;;;;;9.46;85.53;101431.34;20641874;28;19934;-68
2022/12/20 00:55:15;;;;;;;;;;;;;;;9.42;85.62;101437.41;20655238;28;19981;-69
2022/12/20 01:05:36;;;;;;;;;;;;;;;9.46;85.95;101432.19;20646121;28;19977;-69
2022/12/20 01:16:08;;;;;;;;;;;;;;;9.51;85.69;101426.94;20656129;28;19925;-69
2022/12/20 01:26:30;;;;;;;;;;;;;;;9.58;85.87;101437.16;20650063;28;20025;-69
2022/12/20 01:36:51;;;;;;;;;;;;;;;9.51;86.27;101424.34;20656210;28;19926;-69
2022/12/20 01:47:12;;;;;;;;;;;;;;;9.51;86.10;101419.19;20637698;28;19929;-68
2022/12/20 01:57:45;;;;;;;;;;;;;;;9.57;86.24;101419.97;20656114;28;20467;-69
2022/12/20 02:08:08;;;;;;;;;;;;;;;9.59;86.40;101397.53;20666037;28;19949;-69
2022/12/20 02:18:44;;;;;;;;;;;;;;;9.61;86.07;101400.94;20651481;28;19930;-69
2022/12/20 02:29:14;;;;;;;;;;;;;;;9.63;85.97;101394.00;20660593;28;20004;-68
2022/12/20 02:39:38;;;;;;;;;;;;;;;9.62;86.19;101386.28;20657448;28;20377;-68
2022/12/20 02:49:59;;;;;;;;;;;;;;;9.60;86.50;101363.06;20637047;28;19980;-68
2022/12/20 03:00:22;;;;;;;;;;;;;;;9.62;86.52;101360.44;20728474;22;19980;-66
2022/12/20 03:10:43;;;;;;;;;;;;;;;9.67;86.43;101353.50;20709137;28;19929;-66
2022/12/20 03:21:05;;;;;;;;;;;;;;;9.74;85.85;101350.72;20709693;28;19934;-66
2022/12/20 03:31:26;;;;;;;;;;;;;;;9.79;86.19;101353.25;20724662;28;19930;-66
2022/12/20 03:41:48;;;;;;;;;;;;;;;9.82;86.66;101343.72;20723275;28;19926;-66
2022/12/20 03:52:13;;;;;;;;;;;;;;;9.77;87.49;101344.66;20708470;28;19930;-66
2022/12/20 04:02:36;;;;;;;;;;;;;;;9.79;87.75;101340.34;20718230;28;20426;-65
2022/12/20 04:12:58;;;;;;;;;;;;;;;9.85;87.65;101337.63;20720692;28;19933;-66
2022/12/20 04:23:19;;;;;;;;;;;;;;;9.91;87.71;101337.50;20721796;28;20156;-66
2022/12/20 04:33:40;;;;;;;;;;;;;;;9.92;88.09;101339.22;20716270;28;19933;-66
2022/12/20 04:44:02;;;;;;;;;;;;;;;9.97;87.63;101327.06;20739566;28;19929;-65
2022/12/20 04:54:25;;;;;;;;;;;;;;;9.87;88.64;101310.03;20736144;28;19976;-66
2022/12/20 05:04:46;;;;;;;;;;;;;;;9.91;88.59;101303.91;20719364;28;20336;-67
2022/12/20 05:15:08;;;;;;;;;;;;;;;9.87;88.01;101297.13;20746011;28;19929;-66
2022/12/20 05:36:10;;;;;;;;;;;;;;;10.02;89.12;101320.03;20731983;28;19925;-66
2022/12/20 05:46:31;;;;;;;;;;;;;;;10.09;90.38;101298.38;20731101;28;20348;-64
2022/12/20 05:56:53;;;;;;;;;;;;;;;10.20;90.97;101293.03;20809249;28;19913;-66
2022/12/20 06:07:14;;;;;;;;;;;;;;;10.11;91.83;101305.25;20801786;28;19989;-65
2022/12/20 06:17:35;;;;;;;;;;;;;;;10.22;91.63;101299.84;20749094;28;19929;-66
2022/12/20 06:27:57;;;;;;;;;;;;;;;10.29;91.58;101298.84;20733663;28;19955;-67
2022/12/20 06:38:19;;;;;;;;;;;;;;;10.26;91.74;101283.38;20773331;28;19978;-66
2022/12/20 06:48:40;;;;;;;;;;;;;;;10.33;90.94;101274.59;20800647;28;19956;-66
2022/12/20 06:59:01;;;;;;;;;;;;;;;10.35;90.27;101275.41;20775152;28;20279;-66
2022/12/20 07:09:23;;;;;;;;;;;;;;;10.40;89.77;101278.75;20736584;28;20439;-66
2022/12/20 07:19:44;;;;;;;;;;;;;;;10.45;88.62;101286.44;20714210;28;19968;-65
2022/12/20 07:30:11;;;;;;;;;;;;;;;10.44;88.38;101272.63;20724527;28;19925;-64
2022/12/20 07:40:34;;;;;;;;;;;;;;;10.45;88.68;101264.00;20718577;28;19935;-64
2022/12/20 07:50:58;;;;;;;;;;;;;;;10.45;88.68;101266.59;20724583;28;19933;-64
2022/12/20 08:01:20;;;;;;;;;;;;;;;10.52;88.38;101260.38;20709996;28;19929;-63
2022/12/20 08:11:43;;;;;;;;;;;;;;;10.57;88.93;101274.06;20710851;28;19926;-64
2022/12/20 08:22:05;;;;;;;;;;;;;;;10.49;91.25;101264.78;20713891;28;19956;-63
2022/12/20 08:32:26;;;;;;;;;;;;;;;10.46;92.42;101270.84;20716035;28;20009;-63
2022/12/20 08:42:48;;;;;;;;;;;;;;;10.46;93.43;101247.56;20718304;28;20000;-64
2022/12/20 08:53:10;;;;;;;;;;;;;;;10.58;93.22;101249.03;20716360;28;20404;-64
2022/12/20 09:03:32;;;;;;;;;;;;;;;10.62;93.06;101246.31;20718852;28;19925;-64
2022/12/20 09:13:55;;;;;;;;;;;;;;;10.74;92.35;101230.53;20709473;28;19972;-64
2022/12/20 09:24:16;;;;;;;;;;;;;;;10.85;90.99;101218.16;20719282;28;19937;-65
2022/12/20 09:34:38;;;;;;;;;;;;;;;11.06;89.40;101207.25;20741846;28;20349;-64
2022/12/20 09:45:05;;;;;;;;;;;;;;;11.24;88.81;101205.09;20726023;28;19953;-65
2022/12/20 09:55:26;;;;;;;;;;;;;;;11.44;86.24;101192.44;20733737;28;19930;-64
2022/12/20 10:05:52;;;;;;;;;;;;;;;11.46;85.87;101177.69;20724181;28;19930;-64
2022/12/20 10:16:23;;;;;;;;;;;;;;;11.60;85.26;101172.97;20738845;28;19926;-63
2022/12/20 10:26:48;;;;;;;;;;;;;;;11.62;84.55;101153.03;20739570;22;20182;-69
2022/12/20 10:37:10;;;;;;;;;;;;;;;11.69;84.37;101158.03;20709880;28;19925;-68
2022/12/20 10:47:37;;;;;;;;;;;;;;;11.80;83.63;101162.91;20717371;28;20308;-69
2022/12/20 10:58:04;;;;;;;;;;;;;;;11.68;84.53;101160.69;20690036;28;19925;-69
2022/12/20 11:08:26;;;;;;;;;;;;;;;11.60;85.25;101154.81;20717473;28;20343;-68
2022/12/20 11:19:17;;;;;;;;;;;;;;;11.43;85.88;101134.56;20736182;28;20029;-68
2022/12/20 11:29:49;;;;;;;;;;;;;;;11.28;87.35;101123.81;20716917;28;20803;-67
2022/12/20 11:40:26;;;;;;;;;;;;;;;11.15;88.68;101116.38;20724106;28;19925;-66
2022/12/20 11:50:50;;;;;;;;;;;;;;;11.07;89.58;101100.22;20715871;28;19992;-66
2022/12/20 12:01:15;;;;;;;;;;;;;;;11.04;90.20;101083.91;20711122;28;19929;-66
2022/12/20 12:11:40;;;;;;;;;;;;;;;11.00;91.29;101072.78;20705415;28;19956;-66
2022/12/20 12:22:25;;;;;;;;;;;;;;;11.06;91.64;101070.00;20716339;28;20203;-67
2022/12/20 12:32:57;;;;;;;;;;;;;;;11.08;92.35;101064.78;20710532;28;19933;-68
2022/12/20 12:43:18;;;;;;;;;;;;;;;11.24;91.48;101075.56;20708043;28;20407;-67
2022/12/20 12:53:44;;;;;;;;;;;;;;;11.14;91.63;101068.06;20719430;28;19960;-68
2022/12/20 13:04:21;;;;;;;;;;;;;;;11.14;92.45;101081.00;20731250;28;20011;-67
2022/12/20 13:14:42;;;;;;;;;;;;;;;11.23;91.80;101068.66;20710489;28;20108;-67
2022/12/20 13:25:24;;;;;;;;;;;;;;;11.10;93.01;101069.03;20718079;28;19962;-67
2022/12/20 13:35:54;;;;;;;;;;;;;;;11.09;93.42;101064.75;20728365;28;19945;-67
2022/12/20 13:46:35;;;;;;;;;;;;;;;11.09;93.39;101062.16;20728694;28;19930;-67
2022/12/20 13:56:58;;;;;;;;;;;;;;;11.07;93.27;101063.09;20722407;28;20024;-68
2022/12/20 14:07:19;;;;;;;;;;;;;;;11.12;93.20;101067.25;20719799;28;19971;-68
2022/12/20 14:17:41;;;;;;;;;;;;;;;11.06;94.48;101075.19;20718424;28;19925;-68
2022/12/20 14:28:15;;;;;;;;;;;;;;;11.03;94.01;101062.34;20728511;28;19929;-68
2022/12/20 14:38:44;;;;;;;;;;;;;;;11.01;94.10;101069.28;20736519;28;19937;-68
2022/12/20 14:49:24;;;;;;;;;;;;;;;11.04;94.09;101074.38;20716816;28;20447;-69
2022/12/20 14:59:55;;;;;;;;;;;;;;;11.07;93.98;101068.28;20724033;28;19947;-69
2022/12/20 15:10:16;;;;;;;;;;;;;;;11.02;94.80;101055.44;20700468;28;19961;-69
2022/12/20 15:20:38;;;;;;;;;;;;;;;11.08;93.92;101059.59;20718894;28;19992;-68
2022/12/20 15:31:01;;;;;;;;;;;;;;;11.07;94.28;101053.59;20712807;28;20185;-69
2022/12/20 15:41:22;;;;;;;;;;;;;;;11.05;94.82;101060.56;20717096;28;20300;-69
2022/12/20 15:51:45;;;;;;;;;;;;;;;11.13;94.40;101063.75;20713252;28;19925;-69
2022/12/20 16:02:20;;;;;;;;;;;;;;;11.11;94.38;101065.53;20720765;28;19941;-68
2022/12/20 16:12:42;;;;;;;;;;;;;;;11.15;94.45;101051.63;20713538;28;19991;-68
2022/12/20 16:23:06;;;;;;;;;;;;;;;11.17;94.59;101042.97;20712601;28;19991;-69
2022/12/20 16:33:28;;;;;;;;;;;;;;;11.13;94.67;101032.69;20728771;22;20405;-65
2022/12/20 16:43:50;;;;;;;;;;;;;;;11.14;94.66;101038.72;20640813;28;19933;-65
2022/12/20 16:54:12;;;;;;;;;;;;;;;11.13;95.11;101045.63;20621540;28;20340;-65
2022/12/20 17:04:42;;;;;;;;;;;;;;;11.14;95.05;101054.25;20614129;28;19933;-65
2022/12/20 17:15:04;;;;;;;;;;;;;;;11.17;94.85;101053.31;20622169;28;19926;-65
2022/12/20 17:25:27;;;;;;;;;;;;;;;11.11;94.64;101065.53;20622665;28;19981;-65
2022/12/20 17:35:49;;;;;;;;;;;;;;;11.14;94.76;101049.94;20643175;28;19951;-65
2022/12/20 17:46:10;;;;;;;;;;;;;;;11.10;94.99;101063.84;20613342;28;19926;-65
2022/12/20 17:56:33;;;;;;;;;;;;;;;11.14;95.01;101064.59;20610354;28;19949;-65
2022/12/20 18:06:55;;;;;;;;;;;;;;;11.22;94.47;101072.16;20630034;28;20451;-66
2022/12/20 18:17:16;;;;;;;;;;;;;;;11.17;94.87;101071.47;20646211;28;19929;-66
2022/12/20 18:27:39;;;;;;;;;;;;;;;11.15;95.18;101056.78;20627212;28;19950;-66
2022/12/20 18:38:01;;;;;;;;;;;;;;;11.13;96.04;101068.09;20643660;28;19938;-66
2022/12/20 18:48:23;;;;;;;;;;;;;;;11.10;96.55;101066.44;20636799;28;19989;-66
2022/12/20 18:58:46;;;;;;;;;;;;;;;11.09;96.08;101054.41;20633374;28;20416;-66
2022/12/20 19:09:09;;;;;;;;;;;;;;;11.05;96.72;101042.44;20619070;28;19926;-66
2022/12/20 19:19:30;;;;;;;;;;;;;;;11.06;96.23;101048.47;20616429;28;20000;-66
2022/12/20 19:29:53;;;;;;;;;;;;;;;11.00;97.29;101046.91;20604927;28;19960;-65
2022/12/20 19:40:14;;;;;;;;;;;;;;;11.01;97.38;101046.00;20629127;28;19930;-65
2022/12/20 19:50:36;;;;;;;;;;;;;;;10.99;97.79;101034.81;20609966;28;19937;-65
2022/12/20 20:00:57;;;;;;;;;;;;;;;11.01;96.94;101045.13;20618650;28;19933;-65
2022/12/20 20:11:19;;;;;;;;;;;;;;;10.97;96.95;101046.09;20609212;28;19978;-64
2022/12/20 20:21:41;;;;;;;;;;;;;;;10.95;97.60;101050.50;20608697;28;20064;-64
2022/12/20 20:32:02;;;;;;;;;;;;;;;10.96;97.83;101047.00;20613128;28;20654;-64
2022/12/20 20:42:24;;;;;;;;;;;;;;;10.93;97.46;101055.69;20613368;28;19977;-64
2022/12/20 20:52:45;;;;;;;;;;;;;;;10.93;97.55;101055.69;20625923;28;20381;-63
2022/12/20 21:03:07;;;;;;;;;;;;;;;10.92;97.68;101050.56;20612274;28;19926;-63
2022/12/20 21:13:28;;;;;;;;;;;;;;;10.88;96.88;101052.41;20626378;28;19964;-63
2022/12/20 21:23:50;;;;;;;;;;;;;;;10.87;97.48;101055.88;20645623;28;19929;-63
2022/12/20 21:34:11;;;;;;;;;;;;;;;10.82;97.38;101049.13;20627895;28;19934;-63
2022/12/20 21:44:33;;;;;;;;;;;;;;;10.79;97.92;101052.66;20645922;28;19926;-63
2022/12/20 21:54:54;;;;;;;;;;;;;;;10.83;97.65;101043.91;20625168;28;19930;-63
2022/12/20 22:05:16;;;;;;;;;;;;;;;10.78;97.82;101035.44;20684547;28;19922;-64
2022/12/20 22:15:37;;;;;;;;;;;;;;;10.79;98.27;101041.44;20679931;28;20057;-63
2022/12/20 22:26:03;;;;;;;;;;;;;;;10.80;97.89;101038.84;20629644;28;19934;-63
2022/12/20 22:36:25;;;;;;;;;;;;;;;10.81;98.16;101043.09;20706759;23;19929;-68
2022/12/20 22:46:46;;;;;;;;;;;;;;;10.73;97.80;101042.44;20696335;28;19936;-68
2022/12/20 22:57:10;;;;;;;;;;;;;;;10.75;97.86;101051.03;20678496;28;19930;-68
2022/12/20 23:07:32;;;;;;;;;;;;;;;10.73;98.44;101063.16;20679194;28;19936;-68
2022/12/20 23:17:53;;;;;;;;;;;;;;;10.72;96.97;101068.38;20681931;28;19980;-69
2022/12/20 23:28:15;;;;;;;;;;;;;;;10.66;96.58;101087.50;20687355;28;20656;-69
2022/12/20 23:38:37;;;;;;;;;;;;;;;10.58;95.64;101079.13;20680446;28;19929;-68
2022/12/20 23:48:58;;;;;;;;;;;;;;;10.49;96.05;101071.59;20685197;28;19926;-68
2022/12/20 23:59:19;;;;;;;;;;;;;;;10.51;96.05;101072.38;20684803;28;19929;-68
